Wetterdaten: aktuell Dienstag, 13.04.2021 12:00
Datum Zeit Technik Temp. A. +5c Boden Temp. A. min Temp. A. max Bl.Temp 1 BodenTemp 1 BodenTemp 2 BodenTemp 3 BodenTemp 4 Feuchte I. Feuchte A. BlattFeu 1 Bod.Feucht 1 Bod.Feucht 2 Bod.Feucht 3 Bod.Feucht 4 Luftdruck Regen Wind Richtung Richtung Sonnenschein ET UV Solar Taupunkt Windchill Windböen Empfang
13.04.2021 12:00 23,3 °C 6,4 °C 8,3 °C 6,4 °C 7,6 °C 8,9 °C 8,9 °C 7,2 °C 7,8 °C 9,4 °C 39 % 61 % 0 lf 21 cb 200 cb 50 cb 27 cb 1031,8 hPa 0,0 l/m² 4,8 km/h (1 Bft) NW 315 ° 60 min 0,203 mm 1,3 UV-I 194 W/m² -0,6 °C 6,4 °C 16,1 km/h (3 Bft) 83 %
13.04.2021 11:00 23,4 °C 7,1 °C 17,8 °C 5,8 °C 7,2 °C 7,2 °C 7,2 °C 7,2 °C 8,3 °C 9,4 °C 38 % 60 % 0 lf 20 cb 200 cb 50 cb 27 cb 1031,8 hPa 0,0 l/m² 4,8 km/h (1 Bft) O-NO 67 ° 60 min 0,203 mm 1,7 UV-I 496 W/m² -0,1 °C 7,1 °C 14,5 km/h (3 Bft) 86 %
13.04.2021 10:00 23,5 °C 5,7 °C 10,6 °C 4,1 °C 5,8 °C 6,1 °C 6,1 °C 7,2 °C 8,3 °C 9,4 °C 38 % 72 % 0 lf 21 cb 200 cb 50 cb 27 cb 1031,8 hPa 0,0 l/m² 1,6 km/h (1 Bft) SO 135 ° 60 min 0,127 mm 1,1 UV-I 310 W/m² 1,1 °C 5,7 °C 8,0 km/h (2 Bft) 81 %
13.04.2021 09:00 23,7 °C 3,4 °C 11,1 °C 1,6 °C 3,4 °C 5,0 °C 5,0 °C 7,2 °C 8,3 °C 9,4 °C 37 % 84 % 0 lf 21 cb 200 cb 50 cb 27 cb 1031,9 hPa 0,0 l/m² 1,6 km/h (1 Bft) S 180 ° 30 min 0,076 mm 0,7 UV-I 256 W/m² 1,0 °C 3,4 °C 4,8 km/h (1 Bft) 87 %
13.04.2021 08:00 23,6 °C 0,6 °C 0,6 °C -0,2 °C 0,6 °C 5,0 °C 5,0 °C 7,8 °C 8,3 °C 9,4 °C 35 % 90 % 0 lf 21 cb 200 cb 50 cb 27 cb 1031,7 hPa 0,0 l/m² 0,0 km/h (0 Bft) N 360 ° 0 min 0,000 mm 0,0 UV-I 41 W/m² -0,8 °C 0,6 °C 3,2 km/h (1 Bft) 83 %
13.04.2021 07:00 23,4 °C -0,3 °C -1,1 °C -0,7 °C -0,1 °C 5,6 °C 5,6 °C 7,8 °C 8,3 °C 9,4 °C 36 % 90 % 1 lf 21 cb 200 cb 50 cb 27 cb 1031,2 hPa 0,0 l/m² 0,0 km/h (0 Bft) N 360 ° 0 min 0,000 mm 0,0 UV-I 3 W/m² -1,7 °C -0,3 °C 4,8 km/h (1 Bft) 87 %
13.04.2021 06:00 23,2 °C -0,5 °C -1,1 °C -0,5 °C -0,1 °C 5,6 °C 5,6 °C 7,8 °C 8,9 °C 9,4 °C 35 % 90 % 1 lf 21 cb 200 cb 50 cb 27 cb 1030,7 hPa 0,0 l/m² 0,0 km/h (0 Bft) N 360 ° 0 min 0,000 mm 0,0 UV-I 0 W/m² -1,9 °C -0,5 °C 3,2 km/h (1 Bft) 86 %
13.04.2021 05:00 23,3 °C -0,3 °C -1,1 °C -0,7 °C -0,3 °C 5,6 °C 5,6 °C 8,3 °C 8,9 °C 9,4 °C 35 % 91 % 1 lf 20 cb 200 cb 50 cb 27 cb 1030,6 hPa 0,0 l/m² 0,0 km/h (0 Bft) N 360 ° 0 min 0,000 mm 0,0 UV-I 0 W/m² -1,6 °C -0,3 °C 3,2 km/h (1 Bft) 81 %
13.04.2021 04:00 22,7 °C 0,2 °C -1,7 °C 0,2 °C 0,6 °C 6,1 °C 6,1 °C 8,3 °C 8,9 °C 9,4 °C 36 % 88 % 1 lf 20 cb 200 cb 49 cb 27 cb 1029,9 hPa 0,0 l/m² 0,0 km/h (0 Bft) N 360 ° 0 min 0,000 mm 0,0 UV-I 0 W/m² -1,5 °C 0,2 °C 3,2 km/h (1 Bft) 80 %
13.04.2021 03:00 22,5 °C 0,7 °C -0,6 °C 0,7 °C 0,8 °C 6,1 °C 6,1 °C 8,3 °C 8,9 °C 9,4 °C 36 % 88 % 1 lf 20 cb 200 cb 49 cb 27 cb 1030,0 hPa 0,0 l/m² 0,0 km/h (0 Bft) N 360 ° 0 min 0,000 mm 0,0 UV-I 0 W/m² -1,1 °C 0,7 °C 4,8 km/h (1 Bft) 84 %
13.04.2021 02:00 22,6 °C 0,7 °C -0,6 °C 0,7 °C 0,8 °C 6,7 °C 6,7 °C 8,9 °C 8,9 °C 9,4 °C 36 % 88 % 0 lf 20 cb 200 cb 49 cb 27 cb 1030,2 hPa 0,0 l/m² 0,0 km/h (0 Bft) N 0 ° 0 min 0,000 mm 0,0 UV-I 0 W/m² -1,1 °C 0,7 °C 0,0 km/h (0 Bft) 85 %
13.04.2021 01:00 22,8 °C 1,6 °C 0,0 °C 1,6 °C 1,9 °C 7,2 °C 7,2 °C 8,9 °C 8,9 °C 9,4 °C 36 % 86 % 0 lf 20 cb 200 cb 48 cb 27 cb 1030,1 hPa 0,0 l/m² 0,0 km/h (0 Bft) N 360 ° 0 min 0,000 mm 0,0 UV-I 0 W/m² -0,5 °C 1,6 °C 3,2 km/h (1 Bft) 84 %
13.04.2021 00:00 23,0 °C 2,3 °C 1,1 °C 2,3 °C 2,7 °C 7,2 °C 7,2 °C 9,4 °C 8,9 °C 9,4 °C 36 % 84 % 0 lf 20 cb 200 cb 48 cb 27 cb 1029,9 hPa 0,0 l/m² 0,0 km/h (0 Bft) N 360 ° 0 min 0,000 mm 0,0 UV-I 0 W/m² -0,1 °C 2,3 °C 4,8 km/h (1 Bft) 84 %
12.04.2021 23:00 23,3 °C 3,2 °C 2,2 °C 3,1 °C 3,7 °C 7,8 °C 7,8 °C 9,4 °C 9,4 °C 9,4 °C 36 % 83 % 0 lf 20 cb 200 cb 49 cb 27 cb 1029,6 hPa 0,0 l/m² 0,0 km/h (0 Bft) N 360 ° 0 min 0,025 mm 0,0 UV-I 0 W/m² 0,6 °C 3,2 °C 4,8 km/h (1 Bft) 86 %
12.04.2021 22:00 23,4 °C 4,3 °C 2,8 °C 4,3 °C 5,2 °C 8,3 °C 8,3 °C 9,4 °C 9,4 °C 9,4 °C 36 % 77 % 0 lf 20 cb 200 cb 48 cb 27 cb 1029,7 hPa 0,0 l/m² 0,0 km/h (0 Bft) N 360 ° 0 min 0,025 mm 0,0 UV-I 0 W/m² 0,6 °C 4,3 °C 3,2 km/h (1 Bft) 83 %
12.04.2021 21:00 23,5 °C 5,4 °C 4,4 °C 5,3 °C 5,8 °C 8,3 °C 8,3 °C 9,4 °C 9,4 °C 9,4 °C 36 % 74 % 0 lf 20 cb 200 cb 48 cb 27 cb 1029,4 hPa 0,0 l/m² 0,0 km/h (0 Bft) N 360 ° 0 min 0,025 mm 0,0 UV-I 0 W/m² 1,1 °C 5,4 °C 3,2 km/h (1 Bft) 85 %
12.04.2021 20:00 23,7 °C 6,8 °C 5,6 °C 6,8 °C 7,4 °C 8,9 °C 8,9 °C 9,4 °C 9,4 °C 9,4 °C 36 % 63 % 0 lf 19 cb 200 cb 48 cb 27 cb 1028,8 hPa 0,0 l/m² 1,6 km/h (1 Bft) O-SO 112 ° 0 min 0,025 mm 0,0 UV-I 31 W/m² 0,3 °C 6,8 °C 6,4 km/h (2 Bft) 81 %
12.04.2021 19:00 23,3 °C 7,7 °C 9,4 °C 7,7 °C 8,2 °C 9,4 °C 9,4 °C 10,0 °C 9,4 °C 9,4 °C 36 % 57 % 0 lf 19 cb 200 cb 48 cb 27 cb 1028,3 hPa 0,0 l/m² 3,2 km/h (1 Bft) O-SO 112 ° 0 min 0,051 mm 0,0 UV-I 111 W/m² -0,3 °C 7,7 °C 11,3 km/h (2 Bft) 72 %
12.04.2021 18:00 23,4 °C 7,9 °C 7,8 °C 7,8 °C 8,3 °C 9,4 °C 9,4 °C 10,0 °C 8,9 °C 9,4 °C 36 % 59 % 0 lf 19 cb 200 cb 48 cb 27 cb 1028,2 hPa 0,0 l/m² 4,8 km/h (1 Bft) O-SO 112 ° 30 min 0,102 mm 0,0 UV-I 75 W/m² 0,4 °C 7,9 °C 12,9 km/h (3 Bft) 86 %
12.04.2021 17:00 23,5 °C 9,3 °C 12,2 °C 8,5 °C 9,7 °C 10,0 °C 10,0 °C 9,4 °C 8,9 °C 9,4 °C 36 % 52 % 0 lf 19 cb 200 cb 48 cb 27 cb 1027,8 hPa 0,0 l/m² 4,8 km/h (1 Bft) S 180 ° 60 min 0,203 mm 1,3 UV-I 405 W/m² -0,0 °C 9,3 °C 12,9 km/h (3 Bft) 86 %
12.04.2021 16:00 23,3 °C 7,8 °C 11,1 °C 7,8 °C 8,4 °C 10,6 °C 10,6 °C 9,4 °C 8,9 °C 9,4 °C 37 % 52 % 0 lf 19 cb 200 cb 48 cb 27 cb 1027,7 hPa 0,0 l/m² 1,6 km/h (1 Bft) S-SO 157 ° 60 min 0,127 mm 1,7 UV-I 359 W/m² -1,4 °C 7,8 °C 6,4 km/h (2 Bft) 83 %
12.04.2021 15:00 23,4 °C 7,8 °C 10,0 °C 7,4 °C 8,1 °C 11,1 °C 11,1 °C 9,4 °C 8,9 °C 9,4 °C 37 % 54 % 0 lf 19 cb 200 cb 49 cb 27 cb 1027,9 hPa 0,0 l/m² 3,2 km/h (1 Bft) N 360 ° 60 min 0,127 mm 1,6 UV-I 244 W/m² -0,9 °C 7,8 °C 9,7 km/h (2 Bft) 86 %
12.04.2021 14:00 23,7 °C 7,8 °C 10,6 °C 7,5 °C 8,8 °C 11,1 °C 11,1 °C 8,9 °C 8,9 °C 9,4 °C 37 % 57 % 0 lf 19 cb 200 cb 51 cb 26 cb 1027,7 hPa 0,0 l/m² 4,8 km/h (1 Bft) W 270 ° 60 min 0,229 mm 1,6 UV-I 301 W/m² -0,2 °C 7,8 °C 14,5 km/h (3 Bft) 83 %
12.04.2021 13:00 23,9 °C 8,1 °C 13,9 °C 7,6 °C 8,4 °C 10,0 °C 10,0 °C 8,9 °C 8,9 °C 9,4 °C 37 % 56 % 0 lf 20 cb 200 cb 54 cb 26 cb 1027,6 hPa 0,0 l/m² 4,8 km/h (1 Bft) N 360 ° 0 min 0,330 mm 3,0 UV-I 813 W/m² -0,1 °C 8,1 °C 17,7 km/h (3 Bft) 77 %
_ Min-Zeit 03:30 05:00 03:30 05:00 06:30 07:30 07:30 09:00 11:30 13:00 04:30 16:30 13:00 13:30 13:00 16:00 13:00 13:30 - 21:00 - - - - - - 04:30 06:30 22:30 19:00
Minimum _ 22,4 °C -0,7 °C -1,7 °C -0,7 °C -0,4 °C 5,0 °C 5,0 °C 7,2 °C 7,8 °C 9,4 °C 35 % 51 % 0 lf 19 cb 200 cb 48 cb 26 cb 1027,5 hPa - 0,0 km/h (0 Bft) - - - - - - -2,0 °C -0,7 °C 0,0 km/h (0 Bft) 72 %
_ Max-Zeit 13:00 17:00 13:30 17:00 17:00 14:00 14:00 18:00 18:30 13:00 11:30 05:00 04:30 06:00 13:00 13:00 15:00 09:00 13:00 13:00 - - 13:30 13:00 13:00 13:00 21:00 17:00 13:00 15:30
Maximum _ 23,9 °C 9,7 °C 18,9 °C 8,5 °C 9,7 °C 11,1 °C 11,1 °C 10,0 °C 9,4 °C 9,4 °C 39 % 91 % 2 lf 21 cb 200 cb 54 cb 27 cb 1031,9 hPa 0,0 l/m² 4,8 km/h
N (1 Bft)
- - 30 min 0,330 mm 3,0 UV-I 813 W/m² 1,1 °C 9,3 °C 17,7 km/h
N (3 Bft)
87 %
Durchschnitt _ 23,3 °C 4,5 °C 6,1 °C 4,1 °C 4,8 °C 7,9 °C 7,9 °C 8,7 °C 8,8 °C 9,4 °C 36 % 72 % 0 lf 20 cb 200 cb 49 cb 27 cb 1029,6 hPa #0,0 l/m² 1,9 km/h (1 Bft) N - #3:30 h #0,609 mm 1,2 UV-I 249 W/m² -0,4 °C 4,5 °C 7,6 km/h (2 Bft) 83 %
copy; 2009 Dieter Kraft